JAF248 LATI-LGSA
Flight info
| Callsign | JAF248 |
|---|---|
| Flight time | 1h 15m |
| Altitude | 35000 |
| Route | ELBAK DCT DIMIS UL604 TRL UJ65 SOKRI |
| Aircraft | B738/M-SDE2E3FGHIRWXY/LB1 |
Departure
| Time | 2026-05-08 18:14 |
|---|---|
| Airport | Tirana International Airport Mother Teresa (LATI) |
Arrival
| Time | 2026-05-08 19:30 |
|---|---|
| Airport | Chania International Airport (LGSA) |
| Time | Latitude | Longitude | Altitude | Speed | Heading |
|---|---|---|---|---|---|
| 2026-05-08 17:54 | 41.42070 | 19.71516 | 116 ft | 0 kts | 265° |
| 2026-05-08 17:54 | 41.42064 | 19.71517 | 116 ft | 20 kts | 265° |
| 2026-05-08 17:54 | 41.42031 | 19.71519 | 116 ft | 1 kts | 265° |
| 2026-05-08 17:55 | 41.42031 | 19.71511 | 116 ft | 0 kts | 265° |
| 2026-05-08 17:55 | 41.42031 | 19.71510 | 116 ft | 0 kts | 265° |
| 2026-05-08 17:55 | 41.42030 | 19.71510 | 116 ft | 0 kts | 265° |
| 2026-05-08 17:57 | 41.42030 | 19.71509 | 116 ft | 0 kts | 265° |
| 2026-05-08 17:59 | 41.42030 | 19.71508 | 116 ft | 0 kts | 265° |
| 2026-05-08 18:02 | 41.42030 | 19.71507 | 116 ft | 0 kts | 265° |
| 2026-05-08 18:04 | 41.42030 | 19.71506 | 116 ft | 0 kts | 265° |
| 2026-05-08 18:05 | 41.42030 | 19.71505 | 116 ft | 0 kts | 265° |
| 2026-05-08 18:07 | 41.42030 | 19.71504 | 116 ft | 0 kts | 265° |
| 2026-05-08 18:08 | 41.42030 | 19.71505 | 116 ft | 1 kts | 265° |
| 2026-05-08 18:09 | 41.42031 | 19.71524 | 116 ft | 3 kts | 265° |
| 2026-05-08 18:09 | 41.42033 | 19.71549 | 116 ft | 3 kts | 265° |
| 2026-05-08 18:09 | 41.42035 | 19.71576 | 116 ft | 1 kts | 265° |
| 2026-05-08 18:10 | 41.42036 | 19.71575 | 116 ft | 1 kts | 348° |
| 2026-05-08 18:10 | 41.42059 | 19.71569 | 116 ft | 8 kts | 352° |
| 2026-05-08 18:10 | 41.42164 | 19.71556 | 116 ft | 18 kts | 356° |
| 2026-05-08 18:11 | 41.42279 | 19.71546 | 116 ft | 15 kts | 355° |
| 2026-05-08 18:11 | 41.42375 | 19.71533 | 116 ft | 13 kts | 350° |
| 2026-05-08 18:11 | 41.42431 | 19.71523 | 116 ft | 12 kts | 358° |
| 2026-05-08 18:11 | 41.42527 | 19.71516 | 116 ft | 10 kts | 354° |
| 2026-05-08 18:12 | 41.42574 | 19.71510 | 116 ft | 10 kts | 354° |
| 2026-05-08 18:12 | 41.42653 | 19.71519 | 116 ft | 11 kts | 50° |
| 2026-05-08 18:12 | 41.42680 | 19.71625 | 116 ft | 8 kts | 78° |
| 2026-05-08 18:12 | 41.42683 | 19.71670 | 116 ft | 7 kts | 91° |
| 2026-05-08 18:13 | 41.42686 | 19.71776 | 116 ft | 12 kts | 83° |
| 2026-05-08 18:13 | 41.42686 | 19.71874 | 116 ft | 9 kts | 112° |
| 2026-05-08 18:13 | 41.42643 | 19.71910 | 116 ft | 7 kts | 168° |
| 2026-05-08 18:13 | 41.42343 | 19.71957 | 116 ft | 85 kts | 176° |
| 2026-05-08 18:14 | 41.41493 | 19.72063 | 117 ft | 158 kts | 174° |
| 2026-05-08 18:14 | 41.40283 | 19.72245 | 679 ft | 184 kts | 171° |
| 2026-05-08 18:14 | 41.38964 | 19.72531 | 1643 ft | 187 kts | 169° |
| 2026-05-08 18:14 | 41.37714 | 19.72734 | 2775 ft | 181 kts | 173° |
| 2026-05-08 18:15 | 41.36423 | 19.72869 | 3246 ft | 196 kts | 175° |
| 2026-05-08 18:15 | 41.34979 | 19.73018 | 3526 ft | 219 kts | 175° |
| 2026-05-08 18:15 | 41.33376 | 19.73201 | 3812 ft | 241 kts | 174° |
| 2026-05-08 18:15 | 41.31679 | 19.73404 | 4448 ft | 246 kts | 174° |
| 2026-05-08 18:16 | 41.29948 | 19.73615 | 5037 ft | 256 kts | 174° |
| 2026-05-08 18:16 | 41.28131 | 19.73838 | 5573 ft | 267 kts | 174° |
| 2026-05-08 18:16 | 41.26265 | 19.74088 | 6307 ft | 271 kts | 171° |
| 2026-05-08 18:16 | 41.24466 | 19.74843 | 7037 ft | 275 kts | 154° |
| 2026-05-08 18:17 | 41.22810 | 19.76165 | 7769 ft | 280 kts | 147° |
| 2026-05-08 18:17 | 41.21197 | 19.77645 | 8527 ft | 284 kts | 145° |
| 2026-05-08 18:17 | 41.19570 | 19.79171 | 9277 ft | 288 kts | 146° |
| 2026-05-08 18:17 | 41.17897 | 19.80702 | 9770 ft | 294 kts | 147° |
| 2026-05-08 18:18 | 41.16194 | 19.82230 | 9998 ft | 297 kts | 147° |
| 2026-05-08 18:18 | 41.14472 | 19.83757 | 10029 ft | 297 kts | 148° |
| 2026-05-08 18:18 | 41.12758 | 19.85282 | 10049 ft | 297 kts | 148° |
| 2026-05-08 18:18 | 41.10992 | 19.86847 | 10273 ft | 316 kts | 148° |
| 2026-05-08 18:19 | 41.09097 | 19.88511 | 10603 ft | 335 kts | 148° |
| 2026-05-08 18:19 | 41.07116 | 19.90241 | 11158 ft | 345 kts | 149° |
| 2026-05-08 18:19 | 41.05088 | 19.92001 | 11846 ft | 351 kts | 149° |
| 2026-05-08 18:19 | 41.03028 | 19.93787 | 12574 ft | 356 kts | 150° |
| 2026-05-08 18:20 | 41.00940 | 19.95590 | 13308 ft | 361 kts | 150° |
| 2026-05-08 18:20 | 40.98823 | 19.97417 | 14079 ft | 365 kts | 150° |
| 2026-05-08 18:20 | 40.96713 | 19.99238 | 14834 ft | 369 kts | 150° |
| 2026-05-08 18:20 | 40.94547 | 20.01107 | 15568 ft | 374 kts | 150° |
| 2026-05-08 18:21 | 40.92355 | 20.02996 | 16285 ft | 379 kts | 150° |
| 2026-05-08 18:21 | 40.90136 | 20.04908 | 16991 ft | 383 kts | 150° |
| 2026-05-08 18:21 | 40.87894 | 20.06838 | 17657 ft | 388 kts | 150° |
| 2026-05-08 18:21 | 40.85596 | 20.08733 | 18311 ft | 391 kts | 153° |
| 2026-05-08 18:22 | 40.83185 | 20.10432 | 18975 ft | 394 kts | 156° |
| 2026-05-08 18:22 | 40.80710 | 20.12028 | 19617 ft | 397 kts | 158° |
| 2026-05-08 18:22 | 40.78195 | 20.13607 | 20221 ft | 402 kts | 158° |
| 2026-05-08 18:22 | 40.75663 | 20.15218 | 20834 ft | 406 kts | 157° |
| 2026-05-08 18:23 | 40.73112 | 20.16857 | 21414 ft | 410 kts | 157° |
| 2026-05-08 18:23 | 40.70531 | 20.18524 | 21970 ft | 415 kts | 157° |
| 2026-05-08 18:23 | 40.67932 | 20.20208 | 22525 ft | 418 kts | 157° |
| 2026-05-08 18:23 | 40.65308 | 20.21911 | 23036 ft | 423 kts | 157° |
| 2026-05-08 18:24 | 40.62688 | 20.23612 | 23558 ft | 426 kts | 157° |
| 2026-05-08 18:24 | 40.60015 | 20.25347 | 24072 ft | 430 kts | 157° |
| 2026-05-08 18:24 | 40.57325 | 20.27094 | 24535 ft | 435 kts | 157° |
| 2026-05-08 18:24 | 40.54597 | 20.28874 | 24969 ft | 439 kts | 157° |
| 2026-05-08 18:25 | 40.51847 | 20.30678 | 25415 ft | 444 kts | 157° |
| 2026-05-08 18:25 | 40.49074 | 20.32489 | 25847 ft | 448 kts | 157° |
| 2026-05-08 18:25 | 40.46264 | 20.34317 | 26252 ft | 452 kts | 158° |
| 2026-05-08 18:25 | 40.43433 | 20.36156 | 26634 ft | 456 kts | 158° |
| 2026-05-08 18:26 | 40.40575 | 20.38008 | 27030 ft | 460 kts | 158° |
| 2026-05-08 18:26 | 40.37689 | 20.39876 | 27419 ft | 464 kts | 158° |
| 2026-05-08 18:26 | 40.34784 | 20.41767 | 27765 ft | 469 kts | 158° |
| 2026-05-08 18:26 | 40.31853 | 20.43672 | 28147 ft | 472 kts | 158° |
| 2026-05-08 18:27 | 40.28891 | 20.45586 | 28486 ft | 476 kts | 158° |
| 2026-05-08 18:27 | 40.26922 | 20.46854 | 28719 ft | 478 kts | 158° |
| 2026-05-08 18:27 | 40.22914 | 20.49430 | 29180 ft | 482 kts | 159° |
| 2026-05-08 18:27 | 40.19897 | 20.51366 | 29511 ft | 485 kts | 159° |
| 2026-05-08 18:28 | 40.16845 | 20.53322 | 29837 ft | 488 kts | 159° |
| 2026-05-08 18:28 | 40.13791 | 20.55281 | 30157 ft | 491 kts | 159° |
| 2026-05-08 18:28 | 40.10712 | 20.57253 | 30501 ft | 493 kts | 159° |
| 2026-05-08 18:28 | 40.07628 | 20.59226 | 30924 ft | 493 kts | 159° |
| 2026-05-08 18:29 | 40.04548 | 20.61171 | 31412 ft | 490 kts | 160° |
| 2026-05-08 18:29 | 40.01460 | 20.63031 | 31827 ft | 489 kts | 160° |
| 2026-05-08 18:29 | 39.98369 | 20.64905 | 32197 ft | 490 kts | 160° |
| 2026-05-08 18:29 | 39.95274 | 20.66806 | 32446 ft | 493 kts | 160° |
| 2026-05-08 18:30 | 39.92168 | 20.68699 | 32869 ft | 492 kts | 161° |
| 2026-05-08 18:30 | 39.89084 | 20.70573 | 33309 ft | 490 kts | 161° |
| 2026-05-08 18:30 | 39.85997 | 20.72446 | 33736 ft | 488 kts | 161° |
| 2026-05-08 18:30 | 39.82963 | 20.74285 | 34090 ft | 488 kts | 161° |
| 2026-05-08 18:31 | 39.79891 | 20.76145 | 34530 ft | 485 kts | 161° |
| 2026-05-08 18:31 | 39.76807 | 20.78012 | 34951 ft | 483 kts | 161° |
| 2026-05-08 18:31 | 39.73742 | 20.79865 | 35052 ft | 486 kts | 161° |
| 2026-05-08 18:31 | 39.70717 | 20.81694 | 35077 ft | 487 kts | 161° |
| 2026-05-08 18:32 | 39.64666 | 20.85641 | 35082 ft | 485 kts | 157° |
| 2026-05-08 18:32 | 39.58741 | 20.89772 | 35082 ft | 483 kts | 158° |
| 2026-05-08 18:33 | 39.52801 | 20.93847 | 35081 ft | 483 kts | 158° |
| 2026-05-08 18:33 | 39.46857 | 20.97896 | 35080 ft | 482 kts | 158° |
| 2026-05-08 18:34 | 39.40923 | 21.01925 | 35078 ft | 481 kts | 158° |
| 2026-05-08 18:34 | 39.35002 | 21.05972 | 35076 ft | 481 kts | 158° |
| 2026-05-08 18:35 | 39.29080 | 21.09999 | 35073 ft | 481 kts | 158° |
| 2026-05-08 18:35 | 39.23160 | 21.14008 | 35071 ft | 480 kts | 158° |
| 2026-05-08 18:36 | 39.17232 | 21.18011 | 35069 ft | 480 kts | 158° |
| 2026-05-08 18:36 | 39.11315 | 21.21998 | 35067 ft | 480 kts | 158° |
| 2026-05-08 18:37 | 39.05434 | 21.25953 | 35065 ft | 479 kts | 158° |
| 2026-05-08 18:37 | 38.99521 | 21.29926 | 35063 ft | 480 kts | 158° |
| 2026-05-08 18:38 | 38.93618 | 21.33904 | 35061 ft | 479 kts | 158° |
| 2026-05-08 18:38 | 38.87700 | 21.37856 | 35059 ft | 479 kts | 159° |
| 2026-05-08 18:39 | 38.81780 | 21.41799 | 35057 ft | 479 kts | 159° |
| 2026-05-08 18:39 | 38.75866 | 21.45731 | 35062 ft | 479 kts | 159° |
| 2026-05-08 18:40 | 38.69942 | 21.49669 | 35062 ft | 479 kts | 159° |
| 2026-05-08 18:40 | 38.64016 | 21.53590 | 35060 ft | 480 kts | 159° |
| 2026-05-08 18:41 | 38.58089 | 21.57504 | 35057 ft | 480 kts | 159° |
| 2026-05-08 18:41 | 38.52191 | 21.61392 | 35056 ft | 480 kts | 159° |
| 2026-05-08 18:42 | 38.46265 | 21.65291 | 35055 ft | 479 kts | 159° |
| 2026-05-08 18:42 | 38.40334 | 21.69190 | 35056 ft | 480 kts | 159° |
| 2026-05-08 18:43 | 38.34408 | 21.73117 | 35056 ft | 480 kts | 159° |
| 2026-05-08 18:43 | 38.28474 | 21.77023 | 35056 ft | 480 kts | 159° |
| 2026-05-08 18:44 | 38.22551 | 21.80907 | 35056 ft | 479 kts | 159° |
| 2026-05-08 18:44 | 38.16621 | 21.84786 | 35057 ft | 480 kts | 160° |
| 2026-05-08 18:45 | 38.10684 | 21.88662 | 35065 ft | 479 kts | 160° |
| 2026-05-08 18:45 | 38.04751 | 21.92528 | 35067 ft | 479 kts | 160° |
| 2026-05-08 18:46 | 37.98821 | 21.96385 | 35069 ft | 479 kts | 160° |
| 2026-05-08 18:46 | 37.92885 | 22.00239 | 35072 ft | 479 kts | 160° |
| 2026-05-08 18:47 | 37.86949 | 22.04086 | 35078 ft | 479 kts | 160° |
| 2026-05-08 18:47 | 37.81011 | 22.07927 | 35087 ft | 479 kts | 160° |
| 2026-05-08 18:48 | 37.75112 | 22.11736 | 35093 ft | 479 kts | 160° |
| 2026-05-08 18:48 | 37.69179 | 22.15561 | 35098 ft | 479 kts | 159° |
| 2026-05-08 18:49 | 37.63263 | 22.19391 | 35103 ft | 477 kts | 160° |
| 2026-05-08 18:49 | 37.57346 | 22.23187 | 35106 ft | 477 kts | 160° |
| 2026-05-08 18:50 | 37.51491 | 22.26933 | 35109 ft | 477 kts | 160° |
| 2026-05-08 18:50 | 37.45578 | 22.30711 | 35112 ft | 475 kts | 160° |
| 2026-05-08 18:51 | 37.40952 | 22.33816 | 35116 ft | 479 kts | 155° |
| 2026-05-08 18:51 | 37.35725 | 22.38579 | 35119 ft | 484 kts | 147° |
| 2026-05-08 18:52 | 37.30489 | 22.43897 | 35120 ft | 483 kts | 147° |
| 2026-05-08 18:52 | 37.25249 | 22.49164 | 35122 ft | 482 kts | 147° |
| 2026-05-08 18:53 | 37.20006 | 22.54405 | 35126 ft | 482 kts | 147° |
| 2026-05-08 18:53 | 37.14760 | 22.59633 | 35130 ft | 481 kts | 147° |
| 2026-05-08 18:54 | 37.09536 | 22.64877 | 35134 ft | 481 kts | 147° |
| 2026-05-08 18:54 | 37.04317 | 22.70095 | 35143 ft | 480 kts | 147° |
| 2026-05-08 18:55 | 36.96478 | 22.77891 | 34919 ft | 479 kts | 147° |
| 2026-05-08 18:55 | 36.93884 | 22.80464 | 34520 ft | 473 kts | 147° |
| 2026-05-08 18:56 | 36.91321 | 22.83003 | 34050 ft | 470 kts | 147° |
| 2026-05-08 18:56 | 36.88763 | 22.85535 | 33587 ft | 466 kts | 147° |
| 2026-05-08 18:56 | 36.86226 | 22.88043 | 33132 ft | 463 kts | 147° |
| 2026-05-08 18:56 | 36.83711 | 22.90528 | 32685 ft | 460 kts | 147° |
| 2026-05-08 18:57 | 36.81245 | 22.92963 | 32250 ft | 457 kts | 147° |
| 2026-05-08 18:57 | 36.79563 | 22.94622 | 31954 ft | 455 kts | 147° |
| 2026-05-08 18:57 | 36.76292 | 22.97846 | 31381 ft | 450 kts | 147° |
| 2026-05-08 18:57 | 36.73837 | 23.00264 | 30953 ft | 448 kts | 147° |
| 2026-05-08 18:58 | 36.71404 | 23.02657 | 30531 ft | 445 kts | 147° |
| 2026-05-08 18:58 | 36.68983 | 23.05037 | 30110 ft | 442 kts | 147° |
| 2026-05-08 18:58 | 36.66580 | 23.07398 | 29694 ft | 439 kts | 147° |
| 2026-05-08 18:58 | 36.64189 | 23.09745 | 29273 ft | 436 kts | 147° |
| 2026-05-08 18:59 | 36.61811 | 23.12076 | 28851 ft | 434 kts | 147° |
| 2026-05-08 18:59 | 36.59450 | 23.14390 | 28431 ft | 431 kts | 147° |
| 2026-05-08 18:59 | 36.57098 | 23.16692 | 28010 ft | 428 kts | 147° |
| 2026-05-08 18:59 | 36.54763 | 23.18977 | 27593 ft | 426 kts | 147° |
| 2026-05-08 19:00 | 36.53194 | 23.20511 | 27309 ft | 424 kts | 147° |
| 2026-05-08 19:00 | 36.50141 | 23.23509 | 26756 ft | 421 kts | 146° |
| 2026-05-08 19:00 | 36.47849 | 23.25762 | 26337 ft | 418 kts | 147° |
| 2026-05-08 19:00 | 36.45567 | 23.27992 | 25920 ft | 416 kts | 147° |
| 2026-05-08 19:01 | 36.44063 | 23.29457 | 25645 ft | 414 kts | 147° |
| 2026-05-08 19:01 | 36.41798 | 23.31661 | 25227 ft | 412 kts | 147° |
| 2026-05-08 19:01 | 36.39547 | 23.33847 | 24810 ft | 410 kts | 147° |
| 2026-05-08 19:01 | 36.37308 | 23.36020 | 24392 ft | 408 kts | 146° |
| 2026-05-08 19:02 | 36.35079 | 23.38181 | 23975 ft | 405 kts | 146° |
| 2026-05-08 19:02 | 36.32864 | 23.40328 | 23558 ft | 403 kts | 146° |
| 2026-05-08 19:02 | 36.30657 | 23.42466 | 23142 ft | 401 kts | 146° |
| 2026-05-08 19:02 | 36.28464 | 23.44589 | 22726 ft | 399 kts | 146° |
| 2026-05-08 19:03 | 36.26287 | 23.46697 | 22373 ft | 395 kts | 146° |
| 2026-05-08 19:03 | 36.24150 | 23.48781 | 22263 ft | 386 kts | 146° |
| 2026-05-08 19:03 | 36.22062 | 23.50813 | 22215 ft | 379 kts | 146° |
| 2026-05-08 19:03 | 36.20002 | 23.52809 | 22206 ft | 372 kts | 146° |
| 2026-05-08 19:04 | 36.17990 | 23.54750 | 22195 ft | 361 kts | 147° |
| 2026-05-08 19:04 | 36.15889 | 23.56299 | 22168 ft | 342 kts | 165° |
| 2026-05-08 19:04 | 36.13646 | 23.56887 | 22000 ft | 323 kts | 185° |
| 2026-05-08 19:04 | 36.11438 | 23.56526 | 21219 ft | 323 kts | 205° |
| 2026-05-08 19:05 | 36.09497 | 23.55167 | 20583 ft | 320 kts | 227° |
| 2026-05-08 19:05 | 36.08156 | 23.53028 | 20335 ft | 315 kts | 248° |
| 2026-05-08 19:05 | 36.07544 | 23.50445 | 20036 ft | 315 kts | 264° |
| 2026-05-08 19:05 | 36.07111 | 23.47784 | 19605 ft | 319 kts | 252° |
| 2026-05-08 19:06 | 36.05979 | 23.45417 | 19257 ft | 325 kts | 232° |
| 2026-05-08 19:06 | 36.04191 | 23.43682 | 18859 ft | 333 kts | 212° |
| 2026-05-08 19:06 | 36.01954 | 23.42851 | 18672 ft | 340 kts | 192° |
| 2026-05-08 19:06 | 35.99598 | 23.43049 | 18601 ft | 343 kts | 171° |
| 2026-05-08 19:07 | 35.97423 | 23.44241 | 18580 ft | 343 kts | 150° |
| 2026-05-08 19:07 | 35.95686 | 23.46216 | 18585 ft | 338 kts | 134° |
| 2026-05-08 19:07 | 35.94247 | 23.48462 | 18576 ft | 328 kts | 130° |
| 2026-05-08 19:07 | 35.92868 | 23.50648 | 18556 ft | 317 kts | 134° |
| 2026-05-08 19:08 | 35.91353 | 23.52542 | 18541 ft | 305 kts | 143° |
| 2026-05-08 19:08 | 35.89633 | 23.53970 | 18534 ft | 292 kts | 157° |
| 2026-05-08 19:08 | 35.87814 | 23.54922 | 18533 ft | 284 kts | 168° |
| 2026-05-08 19:08 | 35.85906 | 23.55474 | 18540 ft | 282 kts | 176° |
| 2026-05-08 19:09 | 35.83951 | 23.55834 | 18273 ft | 288 kts | 178° |
| 2026-05-08 19:09 | 35.81912 | 23.56191 | 17659 ft | 304 kts | 177° |
| 2026-05-08 19:09 | 35.79772 | 23.56603 | 16938 ft | 319 kts | 176° |
| 2026-05-08 19:09 | 35.77532 | 23.57050 | 16173 ft | 333 kts | 176° |
| 2026-05-08 19:10 | 35.75219 | 23.57560 | 15660 ft | 340 kts | 172° |
| 2026-05-08 19:10 | 35.73023 | 23.58705 | 15278 ft | 350 kts | 152° |
| 2026-05-08 19:10 | 35.71224 | 23.60732 | 14999 ft | 354 kts | 132° |
| 2026-05-08 19:10 | 35.69970 | 23.63330 | 14709 ft | 355 kts | 117° |
| 2026-05-08 19:11 | 35.69062 | 23.66165 | 14262 ft | 358 kts | 112° |
| 2026-05-08 19:11 | 35.68217 | 23.69047 | 13812 ft | 359 kts | 112° |
| 2026-05-08 19:11 | 35.67328 | 23.71922 | 13362 ft | 360 kts | 114° |
| 2026-05-08 19:11 | 35.66396 | 23.74783 | 12913 ft | 361 kts | 115° |
| 2026-05-08 19:12 | 35.65438 | 23.77638 | 12463 ft | 362 kts | 115° |
| 2026-05-08 19:12 | 35.64479 | 23.80495 | 12014 ft | 356 kts | 115° |
| 2026-05-08 19:12 | 35.63562 | 23.83261 | 11587 ft | 342 kts | 116° |
| 2026-05-08 19:12 | 35.62677 | 23.85873 | 11192 ft | 321 kts | 116° |
| 2026-05-08 19:13 | 35.61853 | 23.88279 | 10914 ft | 299 kts | 116° |
| 2026-05-08 19:13 | 35.61051 | 23.90606 | 10484 ft | 285 kts | 116° |
| 2026-05-08 19:13 | 35.60300 | 23.92778 | 10038 ft | 274 kts | 116° |
| 2026-05-08 19:13 | 35.59572 | 23.94881 | 9630 ft | 258 kts | 116° |
| 2026-05-08 19:14 | 35.58895 | 23.96832 | 9215 ft | 234 kts | 116° |
| 2026-05-08 19:14 | 35.58282 | 23.98596 | 8752 ft | 216 kts | 117° |
| 2026-05-08 19:14 | 35.57717 | 24.00223 | 8297 ft | 204 kts | 117° |
| 2026-05-08 19:14 | 35.57174 | 24.01784 | 7836 ft | 194 kts | 117° |
| 2026-05-08 19:15 | 35.56655 | 24.03274 | 7378 ft | 186 kts | 117° |
| 2026-05-08 19:15 | 35.56160 | 24.04698 | 6965 ft | 176 kts | 117° |
| 2026-05-08 19:15 | 35.55711 | 24.06067 | 6500 ft | 172 kts | 110° |
| 2026-05-08 19:15 | 35.55510 | 24.07532 | 5841 ft | 175 kts | 103° |
| 2026-05-08 19:16 | 35.55279 | 24.08988 | 5191 ft | 172 kts | 108° |
| 2026-05-08 19:16 | 35.54974 | 24.10391 | 4595 ft | 167 kts | 109° |
| 2026-05-08 19:16 | 35.54582 | 24.11671 | 4255 ft | 153 kts | 117° |
| 2026-05-08 19:16 | 35.54191 | 24.12873 | 4180 ft | 154 kts | 114° |
| 2026-05-08 19:17 | 35.53827 | 24.14141 | 4179 ft | 161 kts | 112° |
| 2026-05-08 19:17 | 35.53467 | 24.15483 | 3880 ft | 175 kts | 111° |
| 2026-05-08 19:17 | 35.53081 | 24.16998 | 3408 ft | 195 kts | 110° |
| 2026-05-08 19:17 | 35.52693 | 24.18609 | 3077 ft | 198 kts | 109° |
| 2026-05-08 19:18 | 35.52319 | 24.20204 | 2953 ft | 190 kts | 109° |
| 2026-05-08 19:18 | 35.51958 | 24.21766 | 3010 ft | 191 kts | 109° |
| 2026-05-08 19:18 | 35.51607 | 24.23321 | 3472 ft | 187 kts | 109° |
| 2026-05-08 19:18 | 35.51275 | 24.24786 | 4377 ft | 168 kts | 109° |
| 2026-05-08 19:19 | 35.50973 | 24.26093 | 5154 ft | 159 kts | 110° |
| 2026-05-08 19:19 | 35.50639 | 24.27491 | 5467 ft | 182 kts | 110° |
| 2026-05-08 19:19 | 35.50246 | 24.29054 | 5487 ft | 200 kts | 110° |
| 2026-05-08 19:19 | 35.49845 | 24.30730 | 5311 ft | 210 kts | 104° |
| 2026-05-08 19:20 | 35.49911 | 24.32529 | 5071 ft | 217 kts | 72° |
| 2026-05-08 19:20 | 35.50421 | 24.33591 | 4905 ft | 221 kts | 50° |
| 2026-05-08 19:20 | 35.52034 | 24.35074 | 4682 ft | 218 kts | 33° |
| 2026-05-08 19:20 | 35.53310 | 24.36067 | 4531 ft | 215 kts | 33° |
| 2026-05-08 19:21 | 35.54588 | 24.37012 | 4363 ft | 214 kts | 26° |
| 2026-05-08 19:21 | 35.56032 | 24.37372 | 4112 ft | 214 kts | 354° |
| 2026-05-08 19:21 | 35.57374 | 24.36687 | 3827 ft | 210 kts | 318° |
| 2026-05-08 19:21 | 35.58210 | 24.35264 | 3588 ft | 205 kts | 295° |
| 2026-05-08 19:22 | 35.58823 | 24.33668 | 3354 ft | 208 kts | 292° |
| 2026-05-08 19:22 | 35.59321 | 24.32004 | 3099 ft | 207 kts | 276° |
| 2026-05-08 19:22 | 35.59127 | 24.30343 | 3009 ft | 193 kts | 243° |
| 2026-05-08 19:22 | 35.58513 | 24.28864 | 3046 ft | 199 kts | 245° |
| 2026-05-08 19:23 | 35.58196 | 24.27170 | 3036 ft | 207 kts | 265° |
| 2026-05-08 19:23 | 35.58593 | 24.25488 | 3010 ft | 210 kts | 300° |
| 2026-05-08 19:23 | 35.59518 | 24.24097 | 3051 ft | 210 kts | 305° |
| 2026-05-08 19:23 | 35.60268 | 24.22563 | 3042 ft | 208 kts | 292° |
| 2026-05-08 19:24 | 35.60859 | 24.20959 | 3148 ft | 206 kts | 291° |
| 2026-05-08 19:24 | 35.61452 | 24.19342 | 3198 ft | 210 kts | 291° |
| 2026-05-08 19:24 | 35.62054 | 24.17717 | 3211 ft | 209 kts | 291° |
| 2026-05-08 19:24 | 35.62651 | 24.16096 | 3219 ft | 208 kts | 291° |
| 2026-05-08 19:25 | 35.63246 | 24.14479 | 3224 ft | 207 kts | 291° |
| 2026-05-08 19:25 | 35.63840 | 24.12867 | 3226 ft | 206 kts | 290° |
| 2026-05-08 19:25 | 35.64189 | 24.11196 | 3195 ft | 200 kts | 266° |
| 2026-05-08 19:25 | 35.63770 | 24.09605 | 3051 ft | 194 kts | 234° |
| 2026-05-08 19:26 | 35.63017 | 24.08256 | 3034 ft | 195 kts | 238° |
| 2026-05-08 19:26 | 35.62511 | 24.06750 | 3059 ft | 182 kts | 248° |
| 2026-05-08 19:26 | 35.62097 | 24.05359 | 3072 ft | 166 kts | 238° |
| 2026-05-08 19:26 | 35.61376 | 24.04343 | 3044 ft | 152 kts | 217° |
| 2026-05-08 19:27 | 35.60563 | 24.03581 | 3056 ft | 143 kts | 212° |
| 2026-05-08 19:27 | 35.59648 | 24.03194 | 2974 ft | 145 kts | 178° |
| 2026-05-08 19:27 | 35.58753 | 24.03749 | 2939 ft | 148 kts | 139° |
| 2026-05-08 19:27 | 35.58010 | 24.04643 | 2913 ft | 151 kts | 139° |
| 2026-05-08 19:28 | 35.57258 | 24.05551 | 2711 ft | 152 kts | 133° |
| 2026-05-08 19:28 | 35.56593 | 24.06591 | 2283 ft | 154 kts | 128° |
| 2026-05-08 19:28 | 35.56004 | 24.07674 | 1923 ft | 152 kts | 125° |
| 2026-05-08 19:28 | 35.55475 | 24.08786 | 1510 ft | 150 kts | 120° |
| 2026-05-08 19:29 | 35.54973 | 24.09903 | 1173 ft | 149 kts | 118° |
| 2026-05-08 19:29 | 35.54536 | 24.11037 | 977 ft | 147 kts | 113° |
| 2026-05-08 19:29 | 35.54141 | 24.12197 | 774 ft | 149 kts | 115° |
| 2026-05-08 19:29 | 35.53704 | 24.13355 | 519 ft | 146 kts | 113° |
| 2026-05-08 19:30 | 35.53358 | 24.14409 | 518 ft | 104 kts | 112° |
| 2026-05-08 19:30 | 35.53247 | 24.14745 | 518 ft | 12 kts | 109° |
| 2026-05-08 19:30 | 35.53224 | 24.14822 | 518 ft | 8 kts | 112° |
| 2026-05-08 19:30 | 35.53188 | 24.14926 | 518 ft | 18 kts | 112° |
| 2026-05-08 19:31 | 35.53164 | 24.15000 | 518 ft | 20 kts | 108° |
| 2026-05-08 19:31 | 35.53170 | 24.15108 | 518 ft | 8 kts | 44° |
| 2026-05-08 19:31 | 35.53228 | 24.15149 | 518 ft | 12 kts | 25° |
| 2026-05-08 19:31 | 35.53286 | 24.15161 | 518 ft | 10 kts | 331° |
| 2026-05-08 19:32 | 35.53329 | 24.15064 | 518 ft | 12 kts | 292° |
| 2026-05-08 19:32 | 35.53355 | 24.14980 | 518 ft | 9 kts | 291° |
| 2026-05-08 19:32 | 35.53380 | 24.14904 | 518 ft | 9 kts | 289° |
| 2026-05-08 19:32 | 35.53399 | 24.14840 | 518 ft | 7 kts | 290° |
| 2026-05-08 19:33 | 35.53430 | 24.14743 | 518 ft | 13 kts | 292° |
| 2026-05-08 19:33 | 35.53467 | 24.14632 | 518 ft | 16 kts | 292° |
| 2026-05-08 19:33 | 35.53504 | 24.14521 | 518 ft | 12 kts | 291° |
| 2026-05-08 19:33 | 35.53531 | 24.14439 | 518 ft | 9 kts | 292° |
| 2026-05-08 19:34 | 35.53564 | 24.14349 | 518 ft | 15 kts | 316° |
| 2026-05-08 19:34 | 35.53643 | 24.14355 | 518 ft | 10 kts | 15° |
| 2026-05-08 19:34 | 35.53693 | 24.14325 | 518 ft | 11 kts | 296° |
| 2026-05-08 19:34 | 35.53731 | 24.14252 | 518 ft | 8 kts | 344° |
| 2026-05-08 19:35 | 35.53779 | 24.14245 | 518 ft | 6 kts | 4° |
| 2026-05-08 19:35 | 35.53808 | 24.14253 | 518 ft | 3 kts | 22° |
| 2026-05-08 19:35 | 35.53809 | 24.14253 | 518 ft | 0 kts | 22° |
| 2026-05-08 19:36 | 35.53809 | 24.14254 | 518 ft | 0 kts | 22° |
| 2026-05-08 19:37 | 35.53810 | 24.14254 | 518 ft | 0 kts | 22° |